createdAt,value
2017-02-06T00:00:59.046Z,23.0
2017-02-06T00:02:07.130Z,22.9
2017-02-06T00:03:15.218Z,22.9
2017-02-06T00:04:23.312Z,22.9
2017-02-06T00:05:31.398Z,22.8
2017-02-06T00:06:39.486Z,22.9
2017-02-06T00:07:47.575Z,22.9
2017-02-06T00:08:55.669Z,22.8
2017-02-06T00:10:03.756Z,22.8
2017-02-06T00:11:11.841Z,22.8
2017-02-06T00:12:19.930Z,22.9
2017-02-06T00:13:28.017Z,22.7
2017-02-06T00:14:36.103Z,22.8
2017-02-06T00:15:44.196Z,22.7
2017-02-06T00:16:52.282Z,22.7
2017-02-06T00:18:00.377Z,22.8
2017-02-06T00:19:08.466Z,22.8
2017-02-06T00:20:16.554Z,22.7
2017-02-06T00:21:24.640Z,22.6
2017-02-06T00:22:32.723Z,22.7
2017-02-06T00:23:40.816Z,22.6
2017-02-06T00:24:48.907Z,22.7
2017-02-06T00:25:56.986Z,22.7
2017-02-06T00:27:05.126Z,22.7
2017-02-06T00:28:13.172Z,22.6
2017-02-06T00:29:21.263Z,22.6
2017-02-06T00:30:29.347Z,22.6
2017-02-06T00:31:37.437Z,22.6
2017-02-06T00:32:45.524Z,22.5
2017-02-06T00:33:53.615Z,22.5
2017-02-06T00:35:01.695Z,22.5
2017-02-06T00:36:09.785Z,22.5
2017-02-06T00:37:17.875Z,22.6
2017-02-06T00:38:25.960Z,22.5
2017-02-06T00:39:34.051Z,22.5
2017-02-06T00:40:42.139Z,22.5
2017-02-06T00:41:50.227Z,22.4
2017-02-06T00:42:58.309Z,22.5
2017-02-06T00:44:06.436Z,22.5
2017-02-06T00:45:14.499Z,22.5
2017-02-06T00:46:22.580Z,22.4
2017-02-06T00:47:30.671Z,22.4
2017-02-06T00:48:38.757Z,22.4
2017-02-06T00:49:46.842Z,22.4
2017-02-06T00:50:54.928Z,22.4
2017-02-06T00:52:03.025Z,22.3
2017-02-06T00:53:11.110Z,22.3
2017-02-06T00:54:19.194Z,22.3
2017-02-06T00:55:27.284Z,22.3
2017-02-06T00:56:35.374Z,22.3
2017-02-06T00:57:43.465Z,22.3
2017-02-06T00:58:51.547Z,22.2
2017-02-06T00:59:59.638Z,22.2
2017-02-06T01:01:07.765Z,22.3
2017-02-06T01:02:15.817Z,22.2
2017-02-06T01:03:23.907Z,22.2
2017-02-06T01:04:32.002Z,22.2
2017-02-06T01:05:40.080Z,22.1
2017-02-06T01:06:48.167Z,22.1
2017-02-06T01:07:56.253Z,22.1
2017-02-06T01:09:04.342Z,22.1
2017-02-06T01:10:12.424Z,22.2
2017-02-06T01:11:20.513Z,22.1
2017-02-06T01:12:28.601Z,22.1
2017-02-06T01:13:36.684Z,22.1
2017-02-06T01:14:44.775Z,22.0
2017-02-06T01:15:52.865Z,22.1
2017-02-06T01:17:00.956Z,22.0
2017-02-06T01:18:09.038Z,22.0
2017-02-06T01:19:19.338Z,21.9
2017-02-06T01:20:25.230Z,21.9
2017-02-06T01:21:33.316Z,22.0
2017-02-06T01:22:41.410Z,21.9
2017-02-06T01:23:49.494Z,21.9
2017-02-06T01:24:57.577Z,22.0
2017-02-06T01:26:05.660Z,21.9
2017-02-06T01:27:13.750Z,21.9
2017-02-06T01:28:21.835Z,21.9
2017-02-06T01:29:29.920Z,21.9
2017-02-06T01:30:38.017Z,21.8
2017-02-06T01:31:46.105Z,21.8
2017-02-06T01:32:54.198Z,21.8
2017-02-06T01:34:02.275Z,21.8
2017-02-06T01:35:10.365Z,21.8
2017-02-06T01:36:18.452Z,21.8
2017-02-06T01:37:26.537Z,21.7
2017-02-06T01:38:34.628Z,21.7
2017-02-06T01:39:42.718Z,21.6
2017-02-06T01:40:50.804Z,21.7
2017-02-06T01:41:58.894Z,21.7
2017-02-06T01:43:06.988Z,21.6
2017-02-06T01:44:15.069Z,21.5
2017-02-06T01:45:23.156Z,21.6
2017-02-06T01:46:31.249Z,21.7
2017-02-06T01:47:39.336Z,21.6
2017-02-06T01:48:47.417Z,21.6
2017-02-06T01:49:55.504Z,21.6
2017-02-06T01:51:03.601Z,21.6
2017-02-06T01:52:11.689Z,21.6
2017-02-06T01:53:19.773Z,21.6
2017-02-06T01:54:27.866Z,21.6
2017-02-06T01:55:35.957Z,21.6
2017-02-06T01:56:44.041Z,21.5
2017-02-06T01:57:52.130Z,21.5
2017-02-06T01:59:00.219Z,21.5
2017-02-06T02:00:08.299Z,21.5
2017-02-06T02:01:16.384Z,21.5
2017-02-06T02:02:24.474Z,21.4
2017-02-06T02:03:32.561Z,21.5
2017-02-06T02:04:40.642Z,21.4
2017-02-06T02:05:48.731Z,21.4
2017-02-06T02:06:56.826Z,21.3
2017-02-06T02:08:04.912Z,21.3
2017-02-06T02:09:12.994Z,21.4
2017-02-06T02:10:21.085Z,21.3
2017-02-06T02:11:29.175Z,21.3
2017-02-06T02:12:37.258Z,21.3
2017-02-06T02:13:45.349Z,21.3
2017-02-06T02:14:53.434Z,21.2
2017-02-06T02:16:01.520Z,21.3
2017-02-06T02:17:09.603Z,21.2
2017-02-06T02:18:17.695Z,21.2
2017-02-06T02:19:25.786Z,21.2
2017-02-06T02:20:33.870Z,21.1
2017-02-06T02:21:41.957Z,21.2
2017-02-06T02:22:50.041Z,21.2
2017-02-06T02:23:58.124Z,21.2
2017-02-06T02:25:06.214Z,21.1
2017-02-06T02:26:14.392Z,21.1
2017-02-06T02:27:22.390Z,21.0
2017-02-06T02:28:30.470Z,21.0
2017-02-06T02:29:38.561Z,21.1
2017-02-06T02:30:46.650Z,21.1
2017-02-06T02:31:54.735Z,21.0
2017-02-06T02:33:02.820Z,21.0
2017-02-06T02:34:10.906Z,21.0
2017-02-06T02:35:18.999Z,21.0
2017-02-06T02:36:27.075Z,21.0
2017-02-06T02:37:35.165Z,20.9
2017-02-06T02:38:43.251Z,20.9
2017-02-06T02:39:51.336Z,21.0
2017-02-06T02:40:59.425Z,20.9
2017-02-06T02:42:07.515Z,20.9
2017-02-06T02:43:15.602Z,20.9
2017-02-06T02:44:23.688Z,20.9
2017-02-06T02:45:31.773Z,20.9
2017-02-06T02:46:39.861Z,20.9
2017-02-06T02:47:47.945Z,20.8
2017-02-06T02:48:56.033Z,20.8
2017-02-06T02:50:04.134Z,20.9
2017-02-06T02:51:12.210Z,20.8
2017-02-06T02:52:20.294Z,20.8
2017-02-06T02:53:28.381Z,20.8
2017-02-06T02:54:36.467Z,20.8
2017-02-06T02:55:44.554Z,20.8
2017-02-06T02:56:52.634Z,20.7
2017-02-06T02:58:00.723Z,20.7
2017-02-06T02:59:08.812Z,20.7
2017-02-06T03:00:16.895Z,20.7
2017-02-06T03:01:24.989Z,20.7
2017-02-06T03:02:33.073Z,20.7
2017-02-06T03:03:41.159Z,20.7
2017-02-06T03:04:49.245Z,20.6
2017-02-06T03:05:57.334Z,20.5
2017-02-06T03:07:05.422Z,20.7
2017-02-06T03:08:13.511Z,20.6
2017-02-06T03:09:21.599Z,20.5
2017-02-06T03:10:29.683Z,20.5
2017-02-06T03:11:37.767Z,20.5
2017-02-06T03:12:45.862Z,20.5
2017-02-06T03:13:53.951Z,20.5
2017-02-06T03:15:02.033Z,20.4
2017-02-06T03:16:10.121Z,20.5
2017-02-06T03:17:18.213Z,20.6
2017-02-06T03:18:26.298Z,20.5
2017-02-06T03:19:34.389Z,20.5
2017-02-06T03:20:42.479Z,20.5
2017-02-06T03:21:50.562Z,20.4
2017-02-06T03:22:58.647Z,20.3
2017-02-06T03:24:06.726Z,20.4
2017-02-06T03:25:14.823Z,20.5
2017-02-06T03:26:22.908Z,20.4
2017-02-06T03:27:30.996Z,20.4
2017-02-06T03:28:39.084Z,20.5
2017-02-06T03:29:47.237Z,20.5
2017-02-06T03:30:55.251Z,20.5
2017-02-06T03:32:03.344Z,20.5
2017-02-06T03:33:11.433Z,20.4
2017-02-06T03:34:19.519Z,20.6
2017-02-06T03:35:27.605Z,20.5
2017-02-06T03:36:35.696Z,20.5
2017-02-06T03:37:43.781Z,20.6
2017-02-06T03:38:51.862Z,20.5
2017-02-06T03:39:59.946Z,20.5
2017-02-06T03:41:08.035Z,20.5
2017-02-06T03:42:16.120Z,20.5
2017-02-06T03:43:24.213Z,20.5
2017-02-06T03:44:32.293Z,20.6
2017-02-06T03:45:40.384Z,20.6
2017-02-06T03:46:48.483Z,20.6
2017-02-06T03:47:56.554Z,20.6
2017-02-06T03:49:04.643Z,20.7
2017-02-06T03:50:12.733Z,20.6
2017-02-06T03:51:20.821Z,20.6
2017-02-06T03:52:28.907Z,20.7
2017-02-06T03:53:37.000Z,20.6
2017-02-06T03:54:45.085Z,20.7
2017-02-06T03:55:53.167Z,20.8
2017-02-06T03:57:01.268Z,20.7
2017-02-06T03:58:09.349Z,20.7
2017-02-06T03:59:17.433Z,20.7
2017-02-06T04:00:25.520Z,20.8
2017-02-06T04:01:33.609Z,20.8
2017-02-06T04:02:41.691Z,20.7
2017-02-06T04:03:49.783Z,20.7
2017-02-06T04:04:57.872Z,20.8
2017-02-06T04:06:05.957Z,20.9
2017-02-06T04:07:14.046Z,20.8
2017-02-06T04:08:22.146Z,20.9
2017-02-06T04:09:30.236Z,20.9
2017-02-06T04:10:38.317Z,20.8
2017-02-06T04:11:46.404Z,20.9
2017-02-06T04:12:54.495Z,20.9
2017-02-06T04:14:02.580Z,20.9
2017-02-06T04:15:10.665Z,20.9
2017-02-06T04:16:18.752Z,20.9
2017-02-06T04:17:26.839Z,20.9
2017-02-06T04:18:34.928Z,20.9
2017-02-06T04:19:43.009Z,20.9
2017-02-06T04:20:51.107Z,20.9
2017-02-06T04:21:59.194Z,21.0
2017-02-06T04:23:07.282Z,20.9
2017-02-06T04:24:15.370Z,20.9
2017-02-06T04:25:23.459Z,21.0
2017-02-06T04:26:31.544Z,20.9
2017-02-06T04:27:39.635Z,21.0
2017-02-06T04:28:47.720Z,21.0
2017-02-06T04:29:55.806Z,20.9
2017-02-06T04:31:03.887Z,21.0
2017-02-06T04:32:11.988Z,21.0
2017-02-06T04:33:20.074Z,21.0
2017-02-06T04:34:28.160Z,21.1
2017-02-06T04:35:36.249Z,21.0
2017-02-06T04:36:44.334Z,21.1
2017-02-06T04:37:52.422Z,21.0
2017-02-06T04:39:00.506Z,21.1
2017-02-06T04:40:08.605Z,21.1
2017-02-06T04:41:16.691Z,21.1
2017-02-06T04:42:24.784Z,21.0
2017-02-06T04:43:32.871Z,21.1
2017-02-06T04:44:40.955Z,21.1
2017-02-06T04:45:49.040Z,21.1
2017-02-06T04:46:57.120Z,21.1
2017-02-06T04:48:05.215Z,21.1
2017-02-06T04:49:13.298Z,21.1
2017-02-06T04:50:21.386Z,21.1
2017-02-06T04:51:29.476Z,21.1
2017-02-06T04:52:37.563Z,21.0
2017-02-06T04:53:45.656Z,21.1
2017-02-06T04:54:53.736Z,21.1
2017-02-06T04:56:01.827Z,21.1
2017-02-06T04:57:09.915Z,21.2
2017-02-06T04:58:17.996Z,21.2
2017-02-06T04:59:26.089Z,21.1
2017-02-06T05:00:34.173Z,21.2
2017-02-06T05:01:42.256Z,21.2
2017-02-06T05:02:50.343Z,21.1
2017-02-06T05:03:58.431Z,21.1
2017-02-06T05:05:06.518Z,21.2
2017-02-06T05:06:14.602Z,21.2
2017-02-06T05:07:22.690Z,21.1
2017-02-06T05:08:30.780Z,21.2
2017-02-06T05:09:38.866Z,21.2
2017-02-06T05:10:46.951Z,21.3
2017-02-06T05:11:55.042Z,21.3
2017-02-06T05:13:03.129Z,21.2
2017-02-06T05:14:11.216Z,21.3
2017-02-06T05:15:19.315Z,21.3
2017-02-06T05:16:27.392Z,21.2
2017-02-06T05:17:35.481Z,21.3
2017-02-06T05:18:43.564Z,21.3
2017-02-06T05:19:51.656Z,21.2
2017-02-06T05:20:59.743Z,21.3
2017-02-06T05:22:07.824Z,21.3
2017-02-06T05:23:15.923Z,21.3
2017-02-06T05:24:24.014Z,21.3
2017-02-06T05:25:32.096Z,21.4
2017-02-06T05:26:40.184Z,21.3
2017-02-06T05:27:48.280Z,21.4
2017-02-06T05:28:56.372Z,21.3
2017-02-06T05:30:04.450Z,21.4
2017-02-06T05:31:12.548Z,21.3
2017-02-06T05:32:20.627Z,21.3
2017-02-06T05:33:28.713Z,21.3
2017-02-06T05:34:36.829Z,21.3
2017-02-06T05:35:44.887Z,21.4
2017-02-06T05:36:52.974Z,21.3
2017-02-06T05:38:01.060Z,21.4
2017-02-06T05:39:09.150Z,21.4
2017-02-06T05:40:17.238Z,21.4
2017-02-06T05:41:25.325Z,21.4
2017-02-06T05:42:33.414Z,21.4
2017-02-06T05:43:41.502Z,21.4
2017-02-06T05:44:49.593Z,21.4
2017-02-06T05:45:57.907Z,21.4
2017-02-06T05:47:05.775Z,21.4
2017-02-06T05:48:13.867Z,21.4
2017-02-06T05:49:21.955Z,21.4
2017-02-06T05:50:30.042Z,21.4
2017-02-06T05:51:38.132Z,21.4
2017-02-06T05:52:46.220Z,21.4
2017-02-06T05:53:54.301Z,21.4
2017-02-06T05:55:02.393Z,21.4
2017-02-06T05:56:10.479Z,21.4
2017-02-06T05:57:18.566Z,21.4
2017-02-06T05:58:26.651Z,21.3
2017-02-06T05:59:34.745Z,21.4
2017-02-06T06:00:42.826Z,21.4
2017-02-06T06:01:50.916Z,21.4
2017-02-06T06:02:59.013Z,21.4
2017-02-06T06:04:07.096Z,21.4
2017-02-06T06:05:15.183Z,21.5
2017-02-06T06:06:23.280Z,21.4
2017-02-06T06:07:31.364Z,21.4
2017-02-06T06:08:39.452Z,21.4
2017-02-06T06:09:47.566Z,21.5
2017-02-06T06:10:55.628Z,21.5
2017-02-06T06:12:03.714Z,21.4
2017-02-06T06:13:11.801Z,21.4
2017-02-06T06:14:19.891Z,21.4
2017-02-06T06:15:28.057Z,21.4
2017-02-06T06:16:36.062Z,21.4
2017-02-06T06:17:44.152Z,21.5
2017-02-06T06:18:52.249Z,21.4
2017-02-06T06:20:00.605Z,21.4
2017-02-06T06:21:08.422Z,21.5
2017-02-06T06:22:16.512Z,21.5
2017-02-06T06:23:24.600Z,21.4
2017-02-06T06:24:32.680Z,21.5
2017-02-06T06:25:40.768Z,21.4
2017-02-06T06:26:48.861Z,21.4
2017-02-06T06:27:56.950Z,21.4
2017-02-06T06:29:05.034Z,21.5
2017-02-06T06:30:13.123Z,21.4
2017-02-06T06:31:21.238Z,21.4
2017-02-06T06:32:29.747Z,21.4
2017-02-06T06:33:37.382Z,21.4
2017-02-06T06:34:45.485Z,21.4
2017-02-06T06:35:53.571Z,21.5
2017-02-06T06:37:01.847Z,21.4
2017-02-06T06:38:09.741Z,21.4
2017-02-06T06:39:17.830Z,21.4
2017-02-06T06:40:25.913Z,21.4
2017-02-06T06:41:34.000Z,21.5
2017-02-06T06:42:42.088Z,21.5
2017-02-06T06:43:50.188Z,21.4
2017-02-06T06:44:58.261Z,21.5
2017-02-06T06:46:06.391Z,21.5
2017-02-06T06:47:14.435Z,21.4
2017-02-06T06:48:22.519Z,21.5
2017-02-06T06:49:30.613Z,21.5
2017-02-06T06:50:38.700Z,21.5
2017-02-06T06:51:46.786Z,21.5
2017-02-06T06:52:54.875Z,21.4
2017-02-06T06:54:02.968Z,21.5
2017-02-06T06:55:11.061Z,21.5
2017-02-06T06:56:19.151Z,21.4
2017-02-06T06:57:27.241Z,21.5
2017-02-06T06:58:35.333Z,21.5
2017-02-06T06:59:43.423Z,21.5
2017-02-06T07:00:51.505Z,21.5
2017-02-06T07:01:59.594Z,21.4
2017-02-06T07:03:07.683Z,21.4
2017-02-06T07:04:15.765Z,21.4
2017-02-06T07:05:23.856Z,21.5
2017-02-06T07:06:31.951Z,21.4
2017-02-06T07:07:40.039Z,21.5
2017-02-06T07:08:48.120Z,21.4
2017-02-06T07:09:56.218Z,21.4
2017-02-06T07:11:04.304Z,21.5
2017-02-06T07:12:12.384Z,21.4
2017-02-06T07:13:20.476Z,21.4
2017-02-06T07:14:28.760Z,21.4
2017-02-06T07:15:36.662Z,21.5
2017-02-06T07:16:44.747Z,21.5
2017-02-06T07:17:52.841Z,21.5
2017-02-06T07:19:00.927Z,21.4
2017-02-06T07:20:09.019Z,21.5
2017-02-06T07:21:17.106Z,21.5
2017-02-06T07:22:25.193Z,21.4
2017-02-06T07:23:33.277Z,21.4
2017-02-06T07:24:41.365Z,21.4
2017-02-06T07:25:49.453Z,21.4
2017-02-06T07:26:57.544Z,21.4
2017-02-06T07:28:05.625Z,21.4
2017-02-06T07:29:13.716Z,21.4
2017-02-06T07:30:21.801Z,21.4
2017-02-06T07:31:29.890Z,21.4
2017-02-06T07:32:37.977Z,21.4
2017-02-06T07:33:46.063Z,21.4
2017-02-06T07:34:54.152Z,21.4
2017-02-06T07:36:02.236Z,21.4
2017-02-06T07:37:10.658Z,21.4
2017-02-06T07:38:18.419Z,21.3
2017-02-06T07:39:26.501Z,21.4
2017-02-06T07:40:34.863Z,21.4
2017-02-06T07:41:42.694Z,21.4
2017-02-06T07:42:50.776Z,21.4
2017-02-06T07:43:58.860Z,21.4
2017-02-06T07:45:06.951Z,21.4
2017-02-06T07:46:15.046Z,21.4
2017-02-06T07:47:23.134Z,21.4
2017-02-06T07:48:31.221Z,21.4
2017-02-06T07:49:39.310Z,21.3
2017-02-06T07:50:47.399Z,21.4
2017-02-06T07:51:55.479Z,21.4
2017-02-06T07:53:03.575Z,21.4
2017-02-06T07:54:11.667Z,21.4
2017-02-06T07:55:19.754Z,21.4
2017-02-06T07:56:27.925Z,21.4
2017-02-06T07:57:35.934Z,21.4
2017-02-06T07:58:44.024Z,21.4
2017-02-06T07:59:52.109Z,21.4
2017-02-06T08:01:00.200Z,21.4
2017-02-06T08:02:08.299Z,21.4
2017-02-06T08:03:16.389Z,21.4
2017-02-06T08:04:24.470Z,21.3
2017-02-06T08:05:32.913Z,21.4
2017-02-06T08:06:40.640Z,21.4
2017-02-06T08:07:49.105Z,21.4
2017-02-06T08:08:56.813Z,21.4
2017-02-06T08:10:04.910Z,21.4
2017-02-06T08:11:12.993Z,21.4
2017-02-06T08:12:21.097Z,21.4
2017-02-06T08:13:29.399Z,21.4
2017-02-06T08:14:37.253Z,21.5
2017-02-06T08:15:45.589Z,21.5
2017-02-06T08:16:53.468Z,21.5
2017-02-06T08:18:01.518Z,21.5
2017-02-06T08:19:09.603Z,21.6
2017-02-06T08:20:17.692Z,21.5
2017-02-06T08:21:25.779Z,21.5
2017-02-06T08:22:33.882Z,21.5
2017-02-06T08:23:41.955Z,21.6
2017-02-06T08:24:50.042Z,21.6
2017-02-06T08:25:58.127Z,21.6
2017-02-06T08:27:06.213Z,21.6
2017-02-06T08:28:14.437Z,21.7
2017-02-06T08:29:22.409Z,21.6
2017-02-06T08:30:30.504Z,21.6
2017-02-06T08:31:38.660Z,21.6
2017-02-06T08:32:46.668Z,21.6
2017-02-06T08:33:54.856Z,21.6
2017-02-06T08:35:02.838Z,21.7
2017-02-06T08:36:10.928Z,21.7
2017-02-06T08:37:19.174Z,21.6
2017-02-06T08:38:27.098Z,21.6
2017-02-06T08:39:35.182Z,21.7
2017-02-06T08:40:43.277Z,21.7
2017-02-06T08:41:51.378Z,21.7
2017-02-06T08:42:59.455Z,21.7
2017-02-06T08:44:07.584Z,21.8
2017-02-06T08:45:15.675Z,21.7
2017-02-06T08:46:23.731Z,21.8
2017-02-06T08:47:31.816Z,21.7
2017-02-06T08:48:39.898Z,21.8
2017-02-06T08:49:47.983Z,21.8
2017-02-06T08:50:56.070Z,21.8
2017-02-06T08:52:04.166Z,21.8
2017-02-06T08:53:12.247Z,21.9
2017-02-06T08:54:20.329Z,21.9
2017-02-06T08:55:28.430Z,21.9
2017-02-06T08:56:36.510Z,21.9
2017-02-06T08:57:44.597Z,21.9
2017-02-06T08:58:52.678Z,21.9
2017-02-06T09:00:00.769Z,22.0
2017-02-06T09:01:08.919Z,22.0
2017-02-06T09:02:17.198Z,22.1
2017-02-06T09:03:25.034Z,22.1
2017-02-06T09:04:33.121Z,22.1
2017-02-06T09:05:41.206Z,22.1
2017-02-06T09:06:49.293Z,22.1
2017-02-06T09:07:57.387Z,22.1
2017-02-06T09:09:05.841Z,22.1
2017-02-06T09:10:13.733Z,22.1
2017-02-06T09:11:21.646Z,22.2
2017-02-06T09:12:29.735Z,22.2
2017-02-06T09:13:37.820Z,22.2
2017-02-06T09:14:45.908Z,22.2
2017-02-06T09:15:54.001Z,22.2
2017-02-06T09:17:02.083Z,22.2
2017-02-06T09:18:10.194Z,22.2
2017-02-06T09:19:18.258Z,22.2
2017-02-06T09:20:26.346Z,22.2
2017-02-06T09:21:34.435Z,22.1
2017-02-06T09:22:42.519Z,22.2
2017-02-06T09:23:50.610Z,22.1
2017-02-06T09:24:58.747Z,22.3
2017-02-06T09:26:06.799Z,22.2
2017-02-06T09:27:14.890Z,22.3
2017-02-06T09:28:22.978Z,22.2
2017-02-06T09:29:31.065Z,22.3
2017-02-06T09:30:39.148Z,22.3
2017-02-06T09:31:47.406Z,22.3
2017-02-06T09:32:55.326Z,22.2
2017-02-06T09:34:03.606Z,22.4
2017-02-06T09:35:11.679Z,22.3
2017-02-06T09:36:19.744Z,22.2
2017-02-06T09:37:27.670Z,22.4
2017-02-06T09:38:35.755Z,22.3
2017-02-06T09:39:44.001Z,22.4
2017-02-06T09:40:52.093Z,22.4
2017-02-06T09:42:00.028Z,22.4
2017-02-06T09:43:08.115Z,22.4
2017-02-06T09:44:16.366Z,22.5
2017-02-06T09:45:24.445Z,22.5
2017-02-06T09:46:32.371Z,22.5
2017-02-06T09:47:40.617Z,22.5
2017-02-06T09:48:48.694Z,22.4
2017-02-06T09:49:56.787Z,22.5
2017-02-06T09:51:04.869Z,22.5
2017-02-06T09:52:12.979Z,22.5
2017-02-06T09:53:20.905Z,22.5
2017-02-06T09:54:29.159Z,22.6
2017-02-06T09:55:37.249Z,22.6
2017-02-06T09:56:45.327Z,22.6
2017-02-06T09:57:53.262Z,22.6
2017-02-06T09:59:01.630Z,22.6
2017-02-06T10:00:09.550Z,22.6
2017-02-06T10:01:17.593Z,22.6
2017-02-06T10:02:25.629Z,22.6
2017-02-06T10:03:33.717Z,22.7
2017-02-06T10:04:41.802Z,22.6
2017-02-06T10:05:49.884Z,22.6
2017-02-06T10:06:58.038Z,22.7
2017-02-06T10:08:06.211Z,22.6
2017-02-06T10:09:14.155Z,22.6
2017-02-06T10:10:22.312Z,22.6
2017-02-06T10:11:30.509Z,22.6
2017-02-06T10:12:38.431Z,22.6
2017-02-06T10:13:46.592Z,22.7
2017-02-06T10:14:54.588Z,22.7
2017-02-06T10:16:02.673Z,22.8
2017-02-06T10:17:10.765Z,22.7
2017-02-06T10:18:18.857Z,22.7
2017-02-06T10:19:26.947Z,22.8
2017-02-06T10:20:35.300Z,22.8
2017-02-06T10:21:43.278Z,22.8
2017-02-06T10:22:51.350Z,22.8
2017-02-06T10:23:59.460Z,22.7
2017-02-06T10:25:07.518Z,22.8
2017-02-06T10:26:15.620Z,22.8
2017-02-06T10:27:23.719Z,22.8
2017-02-06T10:28:31.865Z,22.8
2017-02-06T10:29:39.734Z,22.8
2017-02-06T10:30:47.823Z,22.8
2017-02-06T10:31:55.912Z,22.8
2017-02-06T10:33:04.132Z,22.9
2017-02-06T10:34:12.087Z,22.9
2017-02-06T10:35:20.175Z,22.9
2017-02-06T10:36:28.425Z,22.9
2017-02-06T10:37:36.505Z,22.9
2017-02-06T10:38:44.443Z,22.9
2017-02-06T10:39:52.528Z,22.9
2017-02-06T10:41:00.766Z,22.9
2017-02-06T10:42:08.701Z,22.9
2017-02-06T10:43:16.948Z,22.8
2017-02-06T10:44:25.088Z,22.9
2017-02-06T10:45:33.106Z,22.9
2017-02-06T10:46:41.262Z,22.9
2017-02-06T10:47:49.145Z,22.9
2017-02-06T10:48:57.227Z,22.9
2017-02-06T10:50:05.316Z,22.9
2017-02-06T10:51:13.408Z,23.0
2017-02-06T10:52:21.495Z,22.9
2017-02-06T10:53:29.747Z,22.9
2017-02-06T10:54:37.685Z,23.0
2017-02-06T10:55:45.774Z,22.9
2017-02-06T10:56:53.861Z,23.0
2017-02-06T10:58:01.948Z,22.9
2017-02-06T10:59:10.035Z,23.0
2017-02-06T11:00:18.122Z,23.0
2017-02-06T11:01:26.208Z,23.0
2017-02-06T11:02:34.302Z,23.0
2017-02-06T11:03:42.399Z,22.9
2017-02-06T11:04:50.473Z,22.9
2017-02-06T11:05:58.563Z,23.0
2017-02-06T11:07:06.655Z,23.0
2017-02-06T11:08:14.743Z,23.0
2017-02-06T11:09:22.828Z,23.0
2017-02-06T11:10:30.921Z,23.0
2017-02-06T11:11:39.012Z,22.9
2017-02-06T11:12:47.099Z,23.0
2017-02-06T11:13:55.187Z,23.0
2017-02-06T11:15:03.275Z,23.0
2017-02-06T11:16:11.359Z,23.1
2017-02-06T11:17:19.447Z,23.0
2017-02-06T11:18:27.537Z,23.1
2017-02-06T11:19:35.630Z,23.1
2017-02-06T11:20:43.707Z,23.1
2017-02-06T11:21:51.801Z,23.0
2017-02-06T11:22:59.892Z,23.1
2017-02-06T11:24:07.980Z,23.1
2017-02-06T11:25:16.070Z,23.1
2017-02-06T11:26:24.163Z,23.0
2017-02-06T11:27:32.241Z,23.1
2017-02-06T11:28:40.334Z,23.1
2017-02-06T11:29:48.426Z,23.1
2017-02-06T11:30:56.513Z,23.1
2017-02-06T11:32:04.599Z,23.1
2017-02-06T11:33:12.686Z,23.1
2017-02-06T11:34:20.774Z,23.1
2017-02-06T11:35:29.021Z,23.2
2017-02-06T11:36:37.094Z,23.2
2017-02-06T11:37:45.036Z,23.1
2017-02-06T11:38:53.121Z,23.2
2017-02-06T11:40:01.495Z,23.2
2017-02-06T11:41:09.456Z,23.1
2017-02-06T11:42:17.547Z,23.2
2017-02-06T11:43:25.666Z,23.2
2017-02-06T11:44:33.725Z,23.2
2017-02-06T11:45:41.693Z,23.2
2017-02-06T11:46:50.056Z,23.1
2017-02-06T11:47:57.834Z,23.2
2017-02-06T11:49:05.923Z,23.2
2017-02-06T11:50:14.012Z,23.2
2017-02-06T11:51:22.112Z,23.2
2017-02-06T11:52:30.363Z,23.2
2017-02-06T11:53:38.286Z,23.2
2017-02-06T11:54:46.568Z,23.1
2017-02-06T11:55:54.625Z,23.2
2017-02-06T11:57:02.563Z,23.2
2017-02-06T11:58:10.645Z,23.2
2017-02-06T11:59:18.733Z,23.1
2017-02-06T12:00:26.818Z,23.1
2017-02-06T12:01:34.908Z,23.1
2017-02-06T12:02:42.991Z,23.1
2017-02-06T12:03:51.175Z,23.2
2017-02-06T12:04:59.174Z,23.2
2017-02-06T12:06:07.267Z,23.1
2017-02-06T12:07:15.356Z,23.1
2017-02-06T12:08:23.441Z,23.1
2017-02-06T12:09:31.532Z,23.2
2017-02-06T12:10:39.627Z,23.1
2017-02-06T12:11:47.715Z,23.1
2017-02-06T12:12:55.804Z,23.2
2017-02-06T12:14:03.894Z,23.1
2017-02-06T12:15:11.977Z,23.1
2017-02-06T12:16:20.074Z,23.2
2017-02-06T12:17:28.166Z,23.2
2017-02-06T12:18:36.254Z,23.2
2017-02-06T12:19:44.334Z,23.2
2017-02-06T12:20:52.424Z,23.2
2017-02-06T12:22:00.513Z,23.1
2017-02-06T12:23:08.601Z,23.1
2017-02-06T12:24:16.685Z,23.2
2017-02-06T12:25:24.785Z,23.2
2017-02-06T12:26:32.871Z,23.1
2017-02-06T12:27:41.433Z,23.1
2017-02-06T12:36:45.659Z,23.2
2017-02-06T12:37:53.757Z,23.2
2017-02-06T12:39:01.875Z,23.2
2017-02-06T12:40:09.930Z,23.2
2017-02-06T12:41:18.017Z,23.2
2017-02-06T12:42:26.105Z,23.2
2017-02-06T12:43:34.189Z,23.2
2017-02-06T12:44:42.280Z,23.2
2017-02-06T12:45:50.368Z,23.1
2017-02-06T12:46:58.459Z,23.1
2017-02-06T12:48:06.545Z,23.2
2017-02-06T12:49:14.632Z,23.1
2017-02-06T12:50:22.713Z,23.1
2017-02-06T12:51:30.802Z,23.1
2017-02-06T12:52:38.906Z,23.1
2017-02-06T12:53:46.990Z,23.1
2017-02-06T12:54:55.073Z,23.2
2017-02-06T12:56:03.233Z,23.1
2017-02-06T12:57:11.627Z,23.1
2017-02-06T12:58:19.340Z,23.1
2017-02-06T12:59:27.423Z,23.1
2017-02-06T13:00:35.514Z,23.1
2017-02-06T13:01:43.605Z,23.1
2017-02-06T13:02:51.687Z,23.1
2017-02-06T13:03:59.777Z,23.1
2017-02-06T13:05:07.863Z,23.1
2017-02-06T13:06:16.556Z,23.1
2017-02-06T13:07:24.041Z,23.0
2017-02-06T13:08:32.835Z,23.1
2017-02-06T13:09:41.270Z,23.1
2017-02-06T13:10:48.687Z,23.1
2017-02-06T13:11:56.452Z,23.1
2017-02-06T13:13:04.498Z,23.1
2017-02-06T13:14:14.427Z,23.1
2017-02-06T13:15:21.203Z,23.1
2017-02-06T13:16:28.978Z,23.1
2017-02-06T13:17:37.415Z,23.1
2017-02-06T13:18:44.930Z,23.1
2017-02-06T13:19:54.691Z,23.0
2017-02-06T13:21:01.417Z,23.1
2017-02-06T13:22:10.113Z,23.1
2017-02-06T13:23:17.559Z,22.9
2017-02-06T13:24:25.735Z,22.9
2017-02-06T13:25:33.576Z,23.0
2017-02-06T13:26:41.809Z,23.0
2017-02-06T13:27:49.723Z,23.0
2017-02-06T13:28:58.060Z,22.9
2017-02-06T13:30:05.966Z,23.0
2017-02-06T13:31:14.000Z,22.9
2017-02-06T13:32:22.168Z,22.9
2017-02-06T13:33:30.482Z,22.9
2017-02-06T13:34:38.640Z,23.0
2017-02-06T13:35:46.352Z,22.9
2017-02-06T13:36:54.352Z,23.0
2017-02-06T13:38:02.436Z,22.9
2017-02-06T13:39:10.524Z,22.9
2017-02-06T13:40:18.611Z,22.9
2017-02-06T13:41:26.699Z,22.9
2017-02-06T13:42:34.784Z,22.9
2017-02-06T13:43:42.878Z,22.9
2017-02-06T13:44:50.973Z,22.8
2017-02-06T13:45:59.059Z,22.9
2017-02-06T13:47:07.150Z,22.8
2017-02-06T13:48:15.235Z,22.9
2017-02-06T13:49:23.318Z,22.9
2017-02-06T13:50:31.406Z,22.8
2017-02-06T13:51:39.499Z,22.8
2017-02-06T13:52:47.585Z,22.8
2017-02-06T13:53:55.670Z,22.7
2017-02-06T13:55:03.769Z,22.8
2017-02-06T13:56:11.855Z,22.8
2017-02-06T13:57:19.949Z,22.8
2017-02-06T13:58:28.034Z,22.8
2017-02-06T13:59:36.125Z,22.8
2017-02-06T14:00:44.217Z,22.7
2017-02-06T14:01:52.299Z,22.8
2017-02-06T14:03:00.388Z,22.8
2017-02-06T14:04:08.478Z,22.8
2017-02-06T14:05:16.571Z,22.7
2017-02-06T14:06:24.654Z,22.8
2017-02-06T14:07:32.745Z,22.8
2017-02-06T14:08:40.839Z,22.8
2017-02-06T14:09:48.929Z,22.8
2017-02-06T14:10:57.405Z,22.8
2017-02-06T14:12:05.575Z,22.8
2017-02-06T14:13:13.407Z,22.8
2017-02-06T14:14:21.675Z,22.8
2017-02-06T14:15:29.561Z,22.8
2017-02-06T14:16:37.452Z,22.8
2017-02-06T14:17:45.911Z,22.8
2017-02-06T14:18:53.632Z,22.8
2017-02-06T14:20:01.719Z,22.8
2017-02-06T14:21:09.806Z,22.8
2017-02-06T14:22:17.892Z,22.8
2017-02-06T14:23:25.988Z,22.9
2017-02-06T14:24:34.079Z,22.8
2017-02-06T14:25:42.164Z,22.8
2017-02-06T14:26:50.253Z,22.9
2017-02-06T14:27:58.343Z,22.9
2017-02-06T14:29:06.427Z,22.8
2017-02-06T14:30:14.517Z,22.9
2017-02-06T14:31:22.615Z,22.9
2017-02-06T14:32:30.705Z,22.9
2017-02-06T14:33:38.792Z,22.9
2017-02-06T14:34:46.885Z,22.9
2017-02-06T14:35:54.971Z,23.0
2017-02-06T14:37:03.056Z,22.9
2017-02-06T14:38:11.156Z,22.9
2017-02-06T14:39:19.245Z,23.0
2017-02-06T14:40:27.331Z,22.9
2017-02-06T14:41:35.422Z,23.0
2017-02-06T14:42:43.510Z,23.1
2017-02-06T14:43:51.606Z,23.1
2017-02-06T14:44:59.694Z,23.1
2017-02-06T14:46:07.784Z,23.1
2017-02-06T14:47:15.873Z,23.1
2017-02-06T14:48:23.968Z,23.1
2017-02-06T14:49:32.051Z,23.1
2017-02-06T14:50:40.145Z,23.2
2017-02-06T14:51:48.232Z,23.1
2017-02-06T14:52:56.533Z,23.1
2017-02-06T14:54:04.417Z,23.1
2017-02-06T14:55:12.504Z,23.2
2017-02-06T14:56:20.593Z,23.2
2017-02-06T14:57:28.677Z,23.2
2017-02-06T14:58:36.779Z,23.3
2017-02-06T14:59:44.873Z,23.3
2017-02-06T15:00:52.950Z,23.3
2017-02-06T15:02:01.040Z,23.3
2017-02-06T15:03:09.129Z,23.3
2017-02-06T15:04:17.228Z,23.3
2017-02-06T15:05:25.310Z,23.3
2017-02-06T15:06:33.405Z,23.3
2017-02-06T15:07:41.497Z,23.3
2017-02-06T15:08:49.584Z,23.5
2017-02-06T15:09:57.720Z,23.3
2017-02-06T15:11:05.759Z,23.3
2017-02-06T15:12:13.856Z,23.3
2017-02-06T15:13:21.942Z,23.5
2017-02-06T15:14:30.036Z,23.5